Time;durP1;ratioP1;P1;durP2;ratioP2;P2;SDS_P1;SDS_P2;PMS_P1;PMS_P2;Temp;Humidity;BMP_temperature;BMP_pressure;BME280_temperature;BME280_humidity;BME280_pressure;Samples;Min_cycle;Max_cycle;Signal;HPM_P1;HPM_P2
2023/12/02 00:02:11;;;;;;;19.17;7.40;;;;;;;12.48;84.81;94472.59;5003142;28;20231;-79
2023/12/02 00:04:48;;;;;;;11.67;4.03;;;;;;;12.14;86.62;94434.66;4998044;28;20254;-72
2023/12/02 00:07:15;;;;;;;21.17;6.90;;;;;;;12.18;87.36;94461.25;4989134;28;20242;-73
2023/12/02 00:09:41;;;;;;;14.00;4.90;;;;;;;12.29;86.41;94462.34;5014589;28;20250;-72
2023/12/02 00:12:06;;;;;;;13.07;4.97;;;;;;;12.28;86.63;94450.22;5012053;28;20226;-72
2023/12/02 00:14:32;;;;;;;9.00;4.00;;;;;;;12.23;86.40;94444.88;5013888;28;20281;-73
2023/12/02 00:16:58;;;;;;;11.73;4.93;;;;;;;12.16;87.20;94455.41;5003849;28;21005;-72
2023/12/02 00:19:24;;;;;;;9.47;4.53;;;;;;;12.16;88.11;94469.34;4998582;28;20307;-72
2023/12/02 00:21:50;;;;;;;9.33;3.97;;;;;;;11.79;89.41;94454.66;5003832;28;20899;-72
2023/12/02 00:24:16;;;;;;;9.70;4.40;;;;;;;11.59;90.52;94443.53;4991264;28;20674;-71
2023/12/02 00:26:41;;;;;;;10.37;4.17;;;;;;;11.66;88.90;94439.00;4998989;28;20249;-72
2023/12/02 00:29:07;;;;;;;15.80;4.70;;;;;;;11.95;87.97;94466.38;4975110;28;20278;-72
2023/12/02 00:31:33;;;;;;;11.73;4.90;;;;;;;12.17;86.77;94449.16;4984004;28;20305;-72
2023/12/02 00:33:58;;;;;;;16.27;5.23;;;;;;;12.05;86.95;94440.44;5011979;28;20269;-73
2023/12/02 00:36:24;;;;;;;14.53;5.40;;;;;;;11.95;89.57;94440.94;5009392;28;20223;-72
2023/12/02 00:38:50;;;;;;;13.87;5.23;;;;;;;11.84;88.26;94444.31;4984153;28;20782;-73
2023/12/02 00:41:15;;;;;;;13.50;5.07;;;;;;;11.65;90.59;94434.00;4972136;28;20229;-72
2023/12/02 00:43:41;;;;;;;11.00;5.17;;;;;;;11.70;89.97;94450.69;5013685;28;20756;-72
2023/12/02 00:46:07;;;;;;;9.93;4.17;;;;;;;12.22;85.96;94438.00;5009431;28;21015;-72
2023/12/02 00:48:32;;;;;;;10.37;4.67;;;;;;;12.36;86.93;94436.81;5011060;28;20234;-73
2023/12/02 00:50:58;;;;;;;14.77;4.17;;;;;;;12.23;86.79;94435.16;5003470;28;21147;-72
2023/12/02 00:53:23;;;;;;;11.53;3.80;;;;;;;12.35;86.77;94438.63;4999391;28;20318;-72
2023/12/02 00:55:49;;;;;;;10.80;3.93;;;;;;;12.33;85.98;94427.56;4998561;28;20333;-72
2023/12/02 00:58:14;;;;;;;12.60;4.97;;;;;;;12.27;86.18;94427.66;5005973;28;20313;-72
2023/12/02 01:00:40;;;;;;;11.63;4.57;;;;;;;11.88;88.57;94416.63;5000097;28;20264;-72
2023/12/02 01:03:05;;;;;;;14.17;4.80;;;;;;;11.87;89.33;94436.00;4996990;28;20289;-72
2023/12/02 01:05:31;;;;;;;11.87;4.53;;;;;;;12.07;88.08;94435.75;5011144;28;20257;-71
2023/12/02 01:07:56;;;;;;;10.17;4.00;;;;;;;12.11;88.53;94437.72;4965706;28;20247;-72
2023/12/02 01:10:22;;;;;;;14.03;4.43;;;;;;;11.94;88.56;94434.09;5007837;28;23576;-72
2023/12/02 01:12:48;;;;;;;10.50;4.10;;;;;;;11.97;89.64;94438.91;4997239;28;20741;-72
2023/12/02 01:15:13;;;;;;;14.60;4.20;;;;;;;11.97;88.36;94438.09;4963183;28;20317;-72
2023/12/02 01:17:39;;;;;;;8.67;4.20;;;;;;;11.69;89.68;94415.03;5009295;28;20310;-71
2023/12/02 01:20:05;;;;;;;10.67;4.73;;;;;;;11.64;91.19;94408.78;5010975;28;20241;-73
2023/12/02 01:22:30;;;;;;;12.37;5.77;;;;;;;11.61;91.41;94438.09;5002231;28;20227;-72
2023/12/02 01:24:56;;;;;;;27.70;11.90;;;;;;;11.58;91.56;94418.34;4999887;28;20237;-72
2023/12/02 01:27:21;;;;;;;16.13;5.80;;;;;;;11.52;92.21;94406.91;5011808;28;20269;-72
2023/12/02 01:29:47;;;;;;;13.37;5.57;;;;;;;11.42;92.84;94406.59;5012738;28;20246;-72
2023/12/02 01:32:13;;;;;;;15.53;4.13;;;;;;;11.13;94.47;94393.41;5003319;28;20271;-72
2023/12/02 01:34:38;;;;;;;13.37;5.83;;;;;;;11.16;94.66;94409.47;5013169;28;20234;-72
2023/12/02 01:37:04;;;;;;;15.20;5.17;;;;;;;11.27;93.20;94406.13;5008136;28;20901;-72
2023/12/02 01:39:29;;;;;;;10.57;3.67;;;;;;;11.39;92.74;94390.53;4997968;28;20295;-73
2023/12/02 01:41:55;;;;;;;16.47;5.43;;;;;;;11.42;93.90;94387.47;5011024;28;20226;-73
2023/12/02 01:44:20;;;;;;;12.43;4.20;;;;;;;11.31;92.95;94394.22;4993796;28;20261;-72
2023/12/02 01:46:46;;;;;;;13.13;4.70;;;;;;;11.41;92.83;94401.59;5011784;28;20338;-72
2023/12/02 01:49:11;;;;;;;9.47;4.00;;;;;;;11.41;93.10;94396.34;5010510;28;20328;-72
2023/12/02 01:51:37;;;;;;;13.57;4.20;;;;;;;11.34;92.86;94393.00;4989243;28;20247;-72
2023/12/02 01:54:03;;;;;;;12.37;4.87;;;;;;;11.32;93.02;94419.41;4974746;28;20243;-73
2023/12/02 01:56:29;;;;;;;6.77;3.50;;;;;;;11.43;91.88;94350.56;4989709;28;20271;-77
2023/12/02 01:58:54;;;;;;;9.53;3.40;;;;;;;11.73;90.32;94400.47;4973786;28;20909;-78
2023/12/02 02:01:20;;;;;;;13.10;3.50;;;;;;;12.02;88.52;94393.66;5000536;28;20234;-78
2023/12/02 02:03:48;;;;;;;13.00;3.97;;;;;;;11.98;89.97;94395.13;5012317;28;20512;-78
2023/12/02 02:06:14;;;;;;;16.13;5.97;;;;;;;11.97;89.00;94378.59;4976090;28;20250;-78
2023/12/02 02:08:40;;;;;;;8.37;3.30;;;;;;;12.12;87.71;94383.44;4976548;28;20231;-78
2023/12/02 02:11:06;;;;;;;12.93;3.87;;;;;;;11.97;89.90;94391.69;4968966;28;20262;-78
2023/12/02 02:13:36;;;;;;;9.97;3.10;;;;;;;11.81;89.65;94352.16;4993144;28;20338;-71
2023/12/02 02:16:13;;;;;;;9.13;3.60;;;;;;;11.70;91.54;94385.16;4989782;28;20274;-72
2023/12/02 02:18:40;;;;;;;8.80;3.20;;;;;;;11.68;90.33;94376.72;4973838;28;20238;-72
2023/12/02 02:21:26;;;;;;;24.47;9.03;;;;;;;11.81;89.78;94357.41;4999948;28;20245;-73
2023/12/02 02:24:00;;;;;;;17.80;6.63;;;;;;;11.76;89.93;94346.78;4982755;28;20226;-73
2023/12/02 02:26:27;;;;;;;9.27;3.83;;;;;;;11.64;92.28;94370.28;4990547;28;20241;-73
2023/12/02 02:28:53;;;;;;;17.07;6.07;;;;;;;11.49;92.12;94370.66;4994068;28;20242;-72
2023/12/02 02:31:21;;;;;;;8.23;3.50;;;;;;;11.25;93.59;94349.75;4995651;28;20226;-78
2023/12/02 02:34:04;;;;;;;11.07;3.47;;;;;;;11.36;93.68;94346.41;4996980;28;20324;-78
2023/12/02 02:36:30;;;;;;;11.53;3.60;;;;;;;11.42;92.31;94361.25;4960001;28;20271;-78
2023/12/02 02:38:56;;;;;;;9.40;3.27;;;;;;;11.48;91.62;94353.34;5021596;28;20435;-78
2023/12/02 02:41:23;;;;;;;7.50;3.10;;;;;;;11.50;91.81;94353.91;4992903;28;20234;-79
2023/12/02 02:43:54;;;;;;;11.00;3.40;;;;;;;11.52;91.52;94366.78;4981230;28;20226;-79
2023/12/02 02:46:21;;;;;;;17.97;6.57;;;;;;;11.49;91.47;94352.31;5010594;28;20235;-71
2023/12/02 02:48:50;;;;;;;12.83;3.30;;;;;;;11.67;90.01;94348.88;4964557;28;20226;-71
2023/12/02 02:51:16;;;;;;;10.17;3.23;;;;;;;11.59;92.23;94398.16;5008259;28;20223;-71
2023/12/02 02:53:42;;;;;;;9.67;2.77;;;;;;;11.55;90.97;94358.50;4980680;28;20242;-78
2023/12/02 02:56:09;;;;;;;9.10;2.83;;;;;;;11.43;92.16;94313.09;4992831;28;20249;-78
2023/12/02 02:58:36;;;;;;;8.37;2.93;;;;;;;11.43;92.83;94315.72;4982337;28;20237;-72
2023/12/02 03:01:16;;;;;;;11.03;3.83;;;;;;;11.51;91.34;94349.50;4978680;28;20230;-72
2023/12/02 03:03:43;;;;;;;15.40;3.17;;;;;;;11.51;91.09;94341.63;4985641;28;20234;-79
2023/12/02 03:06:23;;;;;;;11.93;4.17;;;;;;;11.62;91.26;94347.94;4995980;28;20697;-78
2023/12/02 03:08:53;;;;;;;9.83;2.77;;;;;;;11.50;90.74;94319.84;4986976;28;20229;-77
2023/12/02 03:11:27;;;;;;;11.27;2.97;;;;;;;11.40;91.94;94350.19;4980537;28;20233;-78
2023/12/02 03:13:55;;;;;;;11.03;2.80;;;;;;;11.37;91.46;94274.66;4999803;28;20223;-72
2023/12/02 03:16:28;;;;;;;9.23;3.00;;;;;;;11.37;92.03;94332.28;4989088;28;20385;-72
2023/12/02 03:18:56;;;;;;;8.83;2.70;;;;;;;11.16;93.50;94345.81;5005315;28;20226;-72
2023/12/02 03:21:25;;;;;;;9.50;2.77;;;;;;;11.16;93.31;94351.03;5006435;28;20223;-79
2023/12/02 03:24:05;;;;;;;10.93;3.10;;;;;;;11.12;93.18;94348.09;5004450;28;20227;-78
2023/12/02 03:26:39;;;;;;;9.43;3.00;;;;;;;11.08;92.77;94352.13;4995466;28;20229;-79
2023/12/02 03:29:05;;;;;;;11.57;3.23;;;;;;;11.17;93.40;94323.84;4961547;28;20665;-79
2023/12/02 03:31:35;;;;;;;6.70;2.70;;;;;;;11.16;93.29;94364.94;5019640;28;20260;-78
2023/12/02 03:34:00;;;;;;;8.43;2.63;;;;;;;11.15;92.34;94349.47;5025779;28;20241;-77
2023/12/02 03:36:26;;;;;;;8.13;2.93;;;;;;;11.17;92.34;94335.13;5010483;28;20270;-78
2023/12/02 03:38:52;;;;;;;10.10;2.53;;;;;;;11.04;92.03;94310.88;4992607;28;20321;-78
2023/12/02 03:41:18;;;;;;;8.00;2.70;;;;;;;11.10;92.62;94372.88;4998346;28;20230;-78
2023/12/02 03:43:43;;;;;;;7.90;2.50;;;;;;;11.21;91.28;94353.81;5013663;28;20233;-79
2023/12/02 03:46:09;;;;;;;132.57;41.47;;;;;;;11.36;89.77;94305.31;5012121;28;20250;-77
2023/12/02 03:48:34;;;;;;;13.73;4.53;;;;;;;11.39;90.63;94343.38;4990024;28;20238;-80
2023/12/02 03:51:00;;;;;;;9.47;3.60;;;;;;;11.33;90.66;94373.03;5004693;28;20745;-79
2023/12/02 03:53:30;;;;;;;5.47;2.20;;;;;;;11.41;90.48;94378.00;5013491;28;20245;-79
2023/12/02 03:55:56;;;;;;;6.47;2.73;;;;;;;11.46;89.61;94339.63;5013825;28;20237;-80
2023/12/02 03:58:21;;;;;;;8.00;2.60;;;;;;;11.46;90.55;94365.84;4999475;28;20230;-79
2023/12/02 04:00:47;;;;;;;10.57;3.03;;;;;;;11.39;89.05;94346.00;5017886;28;20270;-78
2023/12/02 04:03:12;;;;;;;8.60;2.87;;;;;;;11.18;91.02;94310.53;5013565;28;20231;-79
2023/12/02 04:05:38;;;;;;;7.20;2.63;;;;;;;11.14;92.06;94356.50;4993700;28;20230;-78
2023/12/02 04:08:04;;;;;;;8.43;2.80;;;;;;;11.19;91.76;94340.16;5005682;28;20234;-78
2023/12/02 04:10:30;;;;;;;9.67;2.77;;;;;;;11.29;91.51;94367.47;5016145;28;20277;-78
2023/12/02 04:12:56;;;;;;;15.07;4.43;;;;;;;11.33;89.85;94341.59;4981439;28;20306;-79
2023/12/02 04:15:21;;;;;;;7.87;2.87;;;;;;;11.26;89.73;94302.41;5003637;28;20325;-78
2023/12/02 04:17:47;;;;;;;8.30;3.10;;;;;;;11.27;90.90;94360.81;5012463;28;20233;-78
2023/12/02 04:20:15;;;;;;;9.17;2.90;;;;;;;11.23;90.42;94294.16;5014593;28;20235;-79
2023/12/02 04:22:41;;;;;;;7.70;2.80;;;;;;;11.26;91.86;94318.13;4994147;28;20758;-79
2023/12/02 04:25:07;;;;;;;5.77;2.50;;;;;;;11.28;90.83;94336.22;4988594;28;20245;-78
2023/12/02 04:27:33;;;;;;;4.90;2.40;;;;;;;11.42;89.12;94277.41;4981303;28;20218;-78
2023/12/02 04:29:58;;;;;;;7.33;3.30;;;;;;;11.53;89.25;94287.94;4993849;28;20223;-79
2023/12/02 04:32:24;;;;;;;9.57;4.17;;;;;;;11.44;89.61;94315.47;5010494;28;20227;-78
2023/12/02 04:34:50;;;;;;;9.10;3.60;;;;;;;11.65;86.65;94274.91;5008748;28;20250;-79
2023/12/02 04:37:15;;;;;;;9.40;2.47;;;;;;;11.92;86.86;94275.38;4978891;28;20334;-72
2023/12/02 04:39:42;;;;;;;11.13;2.40;;;;;;;11.80;87.23;94279.78;4988904;28;20231;-72
2023/12/02 04:42:07;;;;;;;10.50;3.50;;;;;;;11.97;84.51;94255.34;4990438;28;20335;-72
2023/12/02 04:44:33;;;;;;;8.20;2.70;;;;;;;11.91;86.09;94303.44;4995723;28;20223;-72
2023/12/02 04:46:58;;;;;;;12.27;4.67;;;;;;;11.79;86.20;94297.34;5004213;28;20339;-72
2023/12/02 04:49:24;;;;;;;9.73;2.57;;;;;;;11.87;85.45;94265.56;4993373;28;20322;-72
2023/12/02 04:51:55;;;;;;;9.33;3.93;;;;;;;11.82;86.33;94241.81;4974250;28;20230;-72
2023/12/02 04:54:25;;;;;;;8.17;3.40;;;;;;;11.61;87.89;94263.25;4953116;28;20319;-73
2023/12/02 04:56:57;;;;;;;7.30;2.60;;;;;;;11.50;89.04;94269.25;4976587;28;20219;-72
2023/12/02 04:59:23;;;;;;;7.03;3.00;;;;;;;11.51;89.06;94273.50;4953127;28;20263;-72
2023/12/02 05:05:24;;;;;;;;;;;;;;;;;;;;;
2023/12/02 05:07:42;;;;;;;11.17;3.07;;;;;;;11.62;89.14;94293.69;4959723;23;20250;-74
2023/12/02 05:10:08;;;;;;;7.63;2.73;;;;;;;11.56;87.35;94289.31;4961212;28;20239;-74
2023/12/02 05:12:34;;;;;;;6.73;3.13;;;;;;;11.52;88.51;94262.78;4965271;28;20236;-74
2023/12/02 05:14:59;;;;;;;12.13;4.53;;;;;;;11.51;89.78;94299.69;4972384;28;21104;-76
2023/12/02 05:17:25;;;;;;;5.37;2.83;;;;;;;11.49;89.87;94325.28;4989056;28;20231;-76
2023/12/02 05:19:51;;;;;;;6.83;2.90;;;;;;;11.43;89.19;94295.56;4953043;28;21017;-81
2023/12/02 05:22:16;;;;;;;11.10;2.93;;;;;;;11.24;91.20;94243.38;4970094;28;20224;-74
2023/12/02 05:24:42;;;;;;;7.30;3.27;;;;;;;11.39;91.10;94264.78;4943963;28;20255;-74
2023/12/02 05:27:08;;;;;;;10.83;3.10;;;;;;;11.44;89.28;94254.41;4965642;28;20326;-75
2023/12/02 05:29:33;;;;;;;5.23;2.80;;;;;;;11.41;89.27;94226.84;4979287;28;20231;-76
2023/12/02 05:31:59;;;;;;;10.87;4.53;;;;;;;11.40;90.45;94263.72;4952191;28;20228;-75
2023/12/02 05:34:24;;;;;;;14.13;5.87;;;;;;;11.70;88.16;94285.53;4944568;28;20306;-76
2023/12/02 05:36:53;;;;;;;10.63;3.10;;;;;;;11.66;88.23;94265.22;4950285;28;20235;-80
2023/12/02 05:39:18;;;;;;;8.03;2.53;;;;;;;11.65;89.31;94274.13;4990326;28;20232;-81
2023/12/02 05:41:44;;;;;;;11.93;2.80;;;;;;;11.69;88.09;94276.09;4977091;28;20245;-81
2023/12/02 05:44:10;;;;;;;11.87;3.70;;;;;;;11.60;89.76;94279.22;4991374;28;20227;-74
2023/12/02 05:46:39;;;;;;;12.07;3.10;;;;;;;11.64;89.74;94302.13;4976247;28;20239;-75
2023/12/02 05:49:05;;;;;;;8.13;2.53;;;;;;;11.94;86.66;94252.38;4978982;28;20227;-75
2023/12/02 05:51:30;;;;;;;9.13;2.93;;;;;;;11.98;87.28;94262.19;4990320;28;20243;-75
2023/12/02 05:53:56;;;;;;;29.37;13.47;;;;;;;11.84;87.54;94241.63;4950689;28;20235;-75
2023/12/02 05:56:22;;;;;;;16.27;6.07;;;;;;;11.76;88.41;94242.72;4987583;28;20230;-74
2023/12/02 05:58:50;;;;;;;15.80;7.57;;;;;;;11.65;89.23;94229.56;4987075;28;20314;-75
2023/12/02 06:01:20;;;;;;;9.40;3.20;;;;;;;11.63;89.08;94242.88;4972170;28;20821;-74
2023/12/02 06:03:46;;;;;;;21.03;7.87;;;;;;;11.67;88.79;94238.78;4973558;28;20228;-75
2023/12/02 06:06:11;;;;;;;11.57;5.20;;;;;;;11.86;87.70;94229.88;4988851;28;20235;-75
2023/12/02 06:08:37;;;;;;;17.10;6.23;;;;;;;12.13;87.11;94209.31;4979910;28;20717;-74
2023/12/02 06:11:03;;;;;;;10.30;3.17;;;;;;;12.02;87.90;94262.53;4977166;28;20266;-74
2023/12/02 06:13:29;;;;;;;7.90;2.90;;;;;;;11.96;88.64;94290.47;4957963;28;20232;-75
2023/12/02 06:15:55;;;;;;;12.83;3.70;;;;;;;11.84;88.48;94260.78;4975851;28;20255;-75
2023/12/02 06:18:20;;;;;;;7.40;3.30;;;;;;;11.82;89.43;94289.00;4989035;28;20266;-75
2023/12/02 06:20:46;;;;;;;7.97;3.17;;;;;;;11.77;89.50;94304.63;4970155;28;20258;-74
2023/12/02 06:23:12;;;;;;;18.00;6.97;;;;;;;11.78;88.56;94277.38;4963845;28;20262;-74
2023/12/02 06:25:37;;;;;;;13.17;5.13;;;;;;;11.94;87.51;94289.09;4988931;28;20239;-74
2023/12/02 06:28:04;;;;;;;16.37;3.93;;;;;;;12.08;87.02;94286.03;4978495;28;20239;-74
2023/12/02 06:30:29;;;;;;;21.73;8.40;;;;;;;12.07;87.45;94273.94;4962060;28;20231;-74
2023/12/02 06:32:55;;;;;;;17.93;6.97;;;;;;;12.01;85.81;94272.22;4972360;28;21223;-74
2023/12/02 06:35:22;;;;;;;16.63;6.83;;;;;;;12.01;86.94;94276.69;4992454;28;20266;-74
2023/12/02 06:37:48;;;;;;;9.00;4.00;;;;;;;11.96;86.85;94294.91;4977361;28;20239;-74
2023/12/02 06:40:14;;;;;;;13.47;4.00;;;;;;;11.95;87.61;94307.22;4975577;28;20255;-74
2023/12/02 06:42:39;;;;;;;23.93;8.80;;;;;;;11.92;86.42;94298.97;4977659;28;20228;-77
2023/12/02 06:45:18;;;;;;;15.00;5.90;;;;;;;12.05;84.36;94273.38;4958570;28;20275;-81
2023/12/02 06:47:44;;;;;;;8.27;3.63;;;;;;;11.90;86.55;94308.88;4977730;28;20289;-77
2023/12/02 06:50:10;;;;;;;9.17;3.40;;;;;;;11.84;87.05;94307.97;4981492;28;20302;-78
2023/12/02 06:52:36;;;;;;;9.23;3.10;;;;;;;11.85;87.03;94288.59;4975941;28;20235;-78
2023/12/02 06:55:01;;;;;;;11.70;3.40;;;;;;;11.86;87.08;94315.59;4961673;28;20873;-78
2023/12/02 06:57:27;;;;;;;9.87;3.97;;;;;;;11.78;87.80;94313.28;4975749;28;20245;-79
2023/12/02 06:59:53;;;;;;;10.63;4.70;;;;;;;11.84;87.33;94310.59;4953309;28;20292;-78
2023/12/02 07:02:18;;;;;;;15.97;5.87;;;;;;;11.80;87.18;94317.28;4979847;28;20323;-77
2023/12/02 07:04:47;;;;;;;12.10;6.40;;;;;;;11.75;89.18;94325.00;4978797;28;20867;-77
2023/12/02 07:07:12;;;;;;;21.13;8.03;;;;;;;11.72;87.58;94312.38;4969502;28;20236;-78
2023/12/02 07:09:38;;;;;;;21.30;6.93;;;;;;;11.72;87.25;94343.00;4967060;28;20677;-75
2023/12/02 07:12:04;;;;;;;17.97;7.13;;;;;;;11.69;86.71;94319.84;4973367;28;20243;-73
2023/12/02 07:14:32;;;;;;;18.80;5.60;;;;;;;11.60;87.10;94293.13;4966272;28;20394;-78
2023/12/02 07:16:58;;;;;;;11.30;5.20;;;;;;;11.59;88.15;94315.09;4977855;28;20315;-78
2023/12/02 07:19:23;;;;;;;14.43;5.60;;;;;;;11.55;87.44;94298.22;4979113;28;20465;-78
2023/12/02 07:21:49;;;;;;;14.90;5.93;;;;;;;11.58;89.66;94291.75;4976421;28;20298;-78
2023/12/02 07:24:14;;;;;;;15.63;5.23;;;;;;;11.65;87.74;94326.53;4992191;28;20274;-78
2023/12/02 07:26:40;;;;;;;18.60;4.97;;;;;;;11.59;86.74;94288.09;4976912;28;20227;-78
2023/12/02 07:29:06;;;;;;;13.87;4.77;;;;;;;11.64;88.41;94299.53;4977176;28;20689;-74
2023/12/02 07:31:31;;;;;;;17.70;5.43;;;;;;;11.74;88.18;94339.16;4968126;28;20278;-74
2023/12/02 07:33:59;;;;;;;26.43;8.43;;;;;;;11.66;87.15;94320.25;4982722;28;20231;-74
2023/12/02 07:36:24;;;;;;;16.90;7.40;;;;;;;11.68;88.13;94329.53;4977472;28;20235;-75
2023/12/02 07:38:50;;;;;;;17.87;6.40;;;;;;;11.68;87.42;94319.03;4975417;28;20259;-78
2023/12/02 07:41:16;;;;;;;25.00;9.47;;;;;;;11.70;86.61;94319.63;4975853;28;20262;-78
2023/12/02 07:43:41;;;;;;;10.47;4.73;;;;;;;11.75;87.27;94296.16;4992096;28;20232;-79
2023/12/02 07:46:07;;;;;;;16.77;4.93;;;;;;;11.77;88.66;94312.50;4990043;28;20737;-78
2023/12/02 07:48:33;;;;;;;13.77;5.30;;;;;;;11.81;87.86;94329.38;4977010;28;20231;-78
2023/12/02 07:50:58;;;;;;;20.13;6.73;;;;;;;11.73;87.32;94300.84;4977102;28;20239;-79
2023/12/02 07:53:26;;;;;;;18.60;6.43;;;;;;;11.72;87.26;94273.03;4974784;28;20336;-78
2023/12/02 07:55:52;;;;;;;19.03;6.00;;;;;;;11.71;89.13;94287.16;4992851;28;20378;-78
2023/12/02 07:58:17;;;;;;;17.33;5.43;;;;;;;11.76;87.43;94295.16;4979908;28;21058;-78
2023/12/02 08:00:43;;;;;;;11.07;4.23;;;;;;;12.06;85.81;94258.44;4978757;28;20824;-79
2023/12/02 08:03:11;;;;;;;13.90;4.67;;;;;;;12.06;85.90;94274.97;4991408;28;20935;-79
2023/12/02 08:05:37;;;;;;;23.37;7.70;;;;;;;12.06;84.78;94280.22;4978218;28;20233;-80
2023/12/02 08:08:03;;;;;;;17.87;6.70;;;;;;;12.18;84.96;94288.09;4994316;28;20244;-77
2023/12/02 08:10:29;;;;;;;12.00;4.50;;;;;;;12.03;86.75;94272.81;4964733;28;20243;-77
2023/12/02 08:12:54;;;;;;;10.00;4.10;;;;;;;11.89;88.10;94279.22;4991248;28;20224;-78
2023/12/02 08:15:20;;;;;;;13.87;5.50;;;;;;;12.01;86.29;94282.69;4958241;28;20224;-79
2023/12/02 08:17:46;;;;;;;17.20;5.73;;;;;;;12.05;85.58;94277.81;4976610;28;20228;-78
2023/12/02 08:20:12;;;;;;;16.77;6.10;;;;;;;12.08;85.84;94280.00;4976870;28;20305;-78
2023/12/02 08:22:38;;;;;;;27.70;9.20;;;;;;;12.13;85.16;94270.41;4977696;28;20645;-78
2023/12/02 08:25:03;;;;;;;14.83;5.70;;;;;;;12.01;86.28;94272.22;4978851;28;20240;-78
2023/12/02 08:27:29;;;;;;;13.70;5.23;;;;;;;12.03;86.79;94283.31;4984142;28;20227;-77
2023/12/02 08:29:55;;;;;;;19.30;5.27;;;;;;;11.91;86.14;94279.03;4960925;28;20238;-77
2023/12/02 08:32:20;;;;;;;25.00;7.47;;;;;;;11.88;86.97;94254.06;4974792;28;20403;-78
2023/12/02 08:34:46;;;;;;;21.37;7.73;;;;;;;11.96;85.54;94259.00;4992576;28;20232;-80
2023/12/02 08:37:12;;;;;;;24.47;11.10;;;;;;;12.38;84.13;94248.44;4988403;28;20624;-77
2023/12/02 08:39:37;;;;;;;14.13;4.80;;;;;;;12.10;86.93;94249.91;4992461;28;20228;-78
2023/12/02 08:42:03;;;;;;;14.27;4.50;;;;;;;12.06;87.04;94285.44;4973436;28;20228;-79
2023/12/02 08:44:29;;;;;;;20.87;7.10;;;;;;;12.05;85.62;94268.13;4965414;28;20259;-74
2023/12/02 08:46:54;;;;;;;19.83;7.57;;;;;;;12.14;86.98;94265.97;4972052;28;20235;-74
2023/12/02 08:49:20;;;;;;;13.50;5.80;;;;;;;12.24;85.01;94260.97;4975969;28;20244;-75
2023/12/02 08:51:46;;;;;;;18.80;5.60;;;;;;;12.32;84.37;94252.78;4961421;28;20283;-73
2023/12/02 08:54:13;;;;;;;34.03;16.40;;;;;;;12.37;83.81;94239.78;4956614;28;20227;-75
2023/12/02 08:56:38;;;;;;;21.27;5.83;;;;;;;12.34;84.83;94261.25;4957430;28;20320;-73
2023/12/02 08:59:04;;;;;;;19.13;6.90;;;;;;;12.29;84.82;94273.44;4936885;28;20229;-74
2023/12/02 09:01:30;;;;;;;47.70;20.03;;;;;;;12.43;83.52;94240.69;4957221;28;20267;-75
2023/12/02 09:03:56;;;;;;;36.77;14.30;;;;;;;12.70;82.18;94233.97;4957460;28;20308;-75
2023/12/02 09:06:22;;;;;;;19.10;7.20;;;;;;;12.54;84.81;94266.13;4940654;28;20243;-75
2023/12/02 09:08:48;;;;;;;15.70;4.50;;;;;;;12.44;84.76;94265.94;4936845;28;20232;-75
2023/12/02 09:11:13;;;;;;;45.90;19.70;;;;;;;12.48;83.96;94261.81;4946450;28;20239;-75
2023/12/02 09:13:39;;;;;;;25.63;10.17;;;;;;;12.58;82.14;94256.81;4929160;28;20239;-75
2023/12/02 09:16:05;;;;;;;24.10;10.70;;;;;;;12.88;79.38;94235.66;4966796;28;20248;-75
2023/12/02 09:18:35;;;;;;;13.20;4.20;;;;;;;12.98;78.97;94251.66;4914359;28;20239;-75
2023/12/02 09:21:00;;;;;;;12.63;4.70;;;;;;;12.82;83.74;94274.16;4965655;28;20234;-74
2023/12/02 09:23:27;;;;;;;16.07;4.60;;;;;;;12.74;83.23;94272.69;4967041;28;20236;-74
2023/12/02 09:25:56;;;;;;;13.17;4.87;;;;;;;12.82;82.74;94271.53;4954425;28;20232;-74
2023/12/02 09:28:26;;;;;;;19.07;6.47;;;;;;;12.84;82.61;94270.28;4950035;28;20252;-74
2023/12/02 09:31:04;;;;;;;15.63;5.90;;;;;;;12.96;81.28;94262.41;4937198;28;20232;-76
2023/12/02 09:33:34;;;;;;;13.57;5.00;;;;;;;13.10;80.49;94271.66;4984848;28;20266;-75
2023/12/02 09:36:03;;;;;;;18.77;6.17;;;;;;;13.14;80.43;94253.59;4973961;28;20260;-75
2023/12/02 09:38:29;;;;;;;13.80;4.13;;;;;;;13.50;75.23;94224.34;4956966;28;20240;-75
2023/12/02 09:41:51;;;;;;;10.10;3.93;;;;;;;13.79;72.65;94225.16;4967588;28;20338;-74
2023/12/02 09:44:29;;;;;;;29.20;11.53;;;;;;;13.78;75.30;94253.28;4908939;29;20292;-75
2023/12/02 09:47:07;;;;;;;15.27;5.80;;;;;;;13.74;76.17;94265.31;4975796;28;20227;-74
2023/12/02 09:49:53;;;;;;;14.00;5.57;;;;;;;13.72;75.01;94214.78;4979482;28;20739;-76
2023/12/02 09:52:23;;;;;;;14.10;5.40;;;;;;;13.75;76.43;94237.19;4982517;28;20234;-73
2023/12/02 09:54:52;;;;;;;9.33;4.43;;;;;;;13.75;76.99;94242.44;4974203;28;20315;-75
2023/12/02 09:57:56;;;;;;;23.47;8.07;;;;;;;13.88;74.65;94229.00;4974855;28;20259;-76
2023/12/02 10:00:39;;;;;;;26.43;9.57;;;;;;;14.13;74.89;94225.00;4939671;28;20254;-74
2023/12/02 10:03:34;;;;;;;10.63;4.50;;;;;;;14.05;76.13;94248.25;4955940;28;21041;-76
2023/12/02 10:06:47;;;;;;;18.00;5.30;;;;;;;14.36;71.57;94239.84;4958451;28;20249;-75
2023/12/02 10:09:29;;;;;;;13.17;4.97;;;;;;;14.42;71.85;94220.50;4957381;28;20259;-75
2023/12/02 10:12:24;;;;;;;21.37;5.87;;;;;;;14.28;73.50;94232.31;4992660;28;20239;-74
2023/12/02 10:14:54;;;;;;;25.50;9.53;;;;;;;14.51;70.77;94221.66;4988478;28;20274;-75
2023/12/02 10:17:20;;;;;;;22.20;7.60;;;;;;;14.44;74.96;94207.06;4989609;28;20236;-74
2023/12/02 10:19:48;;;;;;;21.77;7.30;;;;;;;14.24;75.94;94212.78;4993994;28;20689;-75
2023/12/02 10:22:13;;;;;;;26.50;6.80;;;;;;;14.15;74.70;94204.50;4978369;28;20232;-75
2023/12/02 10:24:43;;;;;;;22.13;8.93;;;;;;;14.50;70.29;94203.47;4975547;28;20306;-75
2023/12/02 10:27:12;;;;;;;22.33;8.07;;;;;;;14.36;73.79;94203.00;4957393;28;20319;-75
2023/12/02 10:30:12;;;;;;;20.47;5.30;;;;;;;14.27;71.97;94209.69;4976208;28;20725;-75
2023/12/02 10:32:52;;;;;;;15.77;4.40;;;;;;;14.55;71.77;94204.34;5001138;28;20748;-75
2023/12/02 10:35:24;;;;;;;12.70;4.30;;;;;;;14.52;70.67;94190.88;5005983;28;20234;-74
2023/12/02 10:37:57;;;;;;;15.77;5.33;;;;;;;14.56;71.72;94184.88;4979118;28;20224;-76
2023/12/02 10:40:23;;;;;;;21.57;6.37;;;;;;;14.74;70.54;94166.16;4965697;28;20319;-75
2023/12/02 10:42:55;;;;;;;22.67;6.50;;;;;;;14.77;70.09;94159.63;4978577;28;20971;-76
2023/12/02 10:45:20;;;;;;;21.90;6.83;;;;;;;14.55;71.39;94162.22;4996080;28;20731;-76
2023/12/02 10:47:47;;;;;;;20.37;5.93;;;;;;;14.46;73.96;94171.56;4980762;28;20233;-75
2023/12/02 10:50:14;;;;;;;18.40;6.33;;;;;;;14.34;76.29;94173.50;4969132;28;20235;-76
2023/12/02 10:52:39;;;;;;;21.63;7.10;;;;;;;14.26;74.83;94176.47;4965775;28;20262;-75
2023/12/02 10:55:09;;;;;;;22.40;7.40;;;;;;;14.41;71.15;94176.75;4981002;28;20235;-75
2023/12/02 10:57:34;;;;;;;33.10;11.67;;;;;;;14.56;70.19;94161.19;4977809;28;20232;-75
2023/12/02 11:00:12;;;;;;;22.00;9.20;;;;;;;14.56;73.32;94140.13;4970950;28;20244;-77
2023/12/02 11:02:47;;;;;;;15.17;6.20;;;;;;;14.50;72.26;94133.16;4970263;28;20239;-75
2023/12/02 11:05:16;;;;;;;20.37;5.97;;;;;;;14.46;72.61;94134.69;4975742;28;20942;-75
2023/12/02 11:07:49;;;;;;;17.30;5.40;;;;;;;14.48;70.65;94142.34;4977527;28;20327;-75
2023/12/02 11:10:19;;;;;;;25.17;5.50;;;;;;;14.53;68.12;94116.91;4966034;28;20231;-75
2023/12/02 11:12:55;;;;;;;12.47;4.57;;;;;;;14.73;70.71;94114.53;4960590;28;20239;-75
2023/12/02 11:15:22;;;;;;;18.93;5.00;;;;;;;14.46;71.79;94102.31;4956664;28;20250;-76
2023/12/02 11:17:56;;;;;;;16.47;5.07;;;;;;;14.33;72.77;94095.53;4970392;28;20232;-76
2023/12/02 11:20:26;;;;;;;16.87;4.20;;;;;;;14.62;64.92;94106.72;4971628;28;20254;-76
2023/12/02 11:23:19;;;;;;;11.60;3.37;;;;;;;14.86;67.13;94102.81;4977169;28;20223;-74
2023/12/02 11:26:05;;;;;;;10.57;2.70;;;;;;;15.13;62.37;94094.97;4992762;28;20806;-75
2023/12/02 11:28:40;;;;;;;11.80;2.33;;;;;;;15.25;58.63;94104.31;4977643;28;20236;-75
2023/12/02 11:31:20;;;;;;;9.10;2.20;;;;;;;15.89;50.78;94091.22;4964264;28;20241;-76
2023/12/02 11:34:11;;;;;;;8.90;2.20;;;;;;;15.88;54.84;94089.66;4959370;28;20228;-75
2023/12/02 11:36:53;;;;;;;9.93;2.63;;;;;;;15.85;55.87;94069.84;4990301;28;20728;-75
2023/12/02 11:39:29;;;;;;;8.93;2.73;;;;;;;15.61;59.32;94068.56;4991257;28;20712;-75